createdAt,value
2018-11-26T00:00:59.402Z,28.73
2018-11-26T00:03:31.814Z,30.57
2018-11-26T00:06:04.440Z,31.50
2018-11-26T00:08:36.987Z,29.93
2018-11-26T00:11:42.278Z,29.93
2018-11-26T00:14:14.756Z,29.43
2018-11-26T00:16:47.191Z,29.53
2018-11-26T00:19:19.651Z,31.00
2018-11-26T00:21:52.105Z,30.27
2018-11-26T00:24:24.571Z,30.27
2018-11-26T00:26:56.945Z,32.27
2018-11-26T00:29:29.410Z,32.30
2018-11-26T00:32:01.843Z,30.63
2018-11-26T00:34:34.331Z,30.73
2018-11-26T00:37:06.782Z,30.03
2018-11-26T00:39:39.285Z,33.03
2018-11-26T00:42:11.723Z,31.33
2018-11-26T00:44:44.166Z,31.47
2018-11-26T00:47:16.538Z,32.10
2018-11-26T00:49:49.009Z,30.73
2018-11-26T00:52:21.485Z,30.20
2018-11-26T00:54:53.899Z,30.50
2018-11-26T00:57:26.283Z,32.33
2018-11-26T00:59:58.799Z,31.67
2018-11-26T01:02:31.253Z,30.27
2018-11-26T01:05:03.994Z,30.83
2018-11-26T01:07:36.450Z,31.73
2018-11-26T01:10:09.027Z,31.53
2018-11-26T01:12:41.456Z,32.73
2018-11-26T01:15:13.902Z,31.67
2018-11-26T01:17:46.352Z,30.13
2018-11-26T01:20:18.761Z,30.70
2018-11-26T01:22:51.174Z,31.17
2018-11-26T01:25:23.569Z,30.63
2018-11-26T01:27:56.056Z,29.53
2018-11-26T01:30:28.647Z,30.77
2018-11-26T01:33:01.174Z,29.73
2018-11-26T01:35:33.603Z,31.67
2018-11-26T01:38:06.158Z,31.67
2018-11-26T01:40:44.335Z,30.13
2018-11-26T01:43:16.886Z,32.03
2018-11-26T01:45:49.335Z,29.53
2018-11-26T01:48:21.874Z,32.43
2018-11-26T01:50:54.360Z,31.37
2018-11-26T01:53:26.821Z,30.67
2018-11-26T01:55:59.237Z,29.33
2018-11-26T01:58:31.612Z,31.10
2018-11-26T02:01:04.090Z,28.00
2018-11-26T02:03:36.484Z,29.10
2018-11-26T02:06:08.968Z,30.53
2018-11-26T02:08:41.415Z,27.80
2018-11-26T02:11:13.865Z,30.73
2018-11-26T02:13:46.291Z,29.83
2018-11-26T02:16:18.729Z,28.30
2018-11-26T02:18:51.130Z,27.63
2018-11-26T02:21:23.671Z,26.73
2018-11-26T02:23:56.079Z,28.73
2018-11-26T02:26:28.578Z,27.33
2018-11-26T02:29:01.053Z,27.23
2018-11-26T02:31:34.674Z,27.93
2018-11-26T02:34:07.100Z,27.13
2018-11-26T02:36:39.697Z,26.77
2018-11-26T02:39:12.089Z,26.43
2018-11-26T02:41:44.528Z,25.60
2018-11-26T02:44:16.883Z,27.50
2018-11-26T02:46:49.377Z,25.67
2018-11-26T02:49:21.766Z,24.83
2018-11-26T02:51:54.249Z,23.27
2018-11-26T02:54:26.646Z,24.47
2018-11-26T02:56:59.103Z,24.07
2018-11-26T02:59:31.504Z,25.17
2018-11-26T03:02:03.978Z,24.50
2018-11-26T03:04:36.430Z,22.87
2018-11-26T03:07:08.858Z,23.07
2018-11-26T03:09:41.265Z,22.53
2018-11-26T03:12:13.771Z,23.97
2018-11-26T03:14:46.150Z,23.70
2018-11-26T03:17:18.599Z,21.07
2018-11-26T03:19:51.016Z,21.87
2018-11-26T03:22:23.529Z,21.60
2018-11-26T03:24:55.912Z,22.80
2018-11-26T03:27:28.329Z,22.20
2018-11-26T03:30:00.789Z,23.70
2018-11-26T03:32:33.392Z,21.47
2018-11-26T03:35:06.885Z,22.50
2018-11-26T03:37:39.317Z,20.53
2018-11-26T03:40:12.497Z,23.70
2018-11-26T03:42:44.958Z,22.50
2018-11-26T03:45:17.958Z,23.67
2018-11-26T03:47:50.413Z,21.70
2018-11-26T03:50:22.835Z,22.50
2018-11-26T03:52:55.378Z,21.87
2018-11-26T03:55:27.747Z,24.03
2018-11-26T03:58:00.255Z,22.00
2018-11-26T04:00:32.680Z,23.63
2018-11-26T04:03:05.101Z,22.63
2018-11-26T04:05:37.466Z,22.00
2018-11-26T04:08:09.878Z,23.50
2018-11-26T04:10:42.281Z,23.80
2018-11-26T04:13:14.747Z,24.03
2018-11-26T04:15:47.172Z,24.57
2018-11-26T04:18:19.631Z,22.10
2018-11-26T04:20:52.114Z,23.23
2018-11-26T04:23:24.757Z,22.17
2018-11-26T04:25:57.202Z,24.77
2018-11-26T04:28:29.600Z,21.10
2018-11-26T04:31:02.044Z,21.63
2018-11-26T04:33:34.490Z,20.97
2018-11-26T04:36:07.089Z,22.40
2018-11-26T04:38:39.465Z,22.77
2018-11-26T04:41:11.962Z,22.80
2018-11-26T04:43:44.401Z,21.73
2018-11-26T04:46:16.926Z,21.50
2018-11-26T04:48:49.451Z,21.70
2018-11-26T04:51:21.879Z,24.70
2018-11-26T04:53:54.515Z,24.00
2018-11-26T04:56:26.980Z,22.70
2018-11-26T04:58:59.406Z,23.43
2018-11-26T05:01:32.157Z,21.43
2018-11-26T05:04:05.167Z,23.27
2018-11-26T05:06:37.777Z,22.40
2018-11-26T05:09:10.240Z,22.80
2018-11-26T05:11:42.749Z,22.43
2018-11-26T05:14:15.193Z,23.53
2018-11-26T05:16:47.616Z,22.00
2018-11-26T05:19:20.282Z,20.47
2018-11-26T05:21:52.733Z,24.10
2018-11-26T05:24:25.244Z,22.70
2018-11-26T05:26:57.663Z,22.77
2018-11-26T05:29:30.278Z,25.17
2018-11-26T05:32:02.719Z,22.47
2018-11-26T05:34:37.233Z,25.30
2018-11-26T05:37:09.643Z,24.53
2018-11-26T05:39:42.216Z,25.00
2018-11-26T05:42:14.653Z,25.60
2018-11-26T05:44:47.061Z,25.83
2018-11-26T05:47:19.506Z,24.97
2018-11-26T05:49:51.917Z,26.10
2018-11-26T05:52:24.327Z,25.30
2018-11-26T05:54:56.947Z,25.43
2018-11-26T05:57:29.375Z,25.50
2018-11-26T06:00:01.824Z,26.27
2018-11-26T06:02:34.278Z,26.23
2018-11-26T06:05:06.819Z,27.10
2018-11-26T06:07:39.398Z,26.43
2018-11-26T06:10:11.898Z,26.80
2018-11-26T06:12:44.351Z,27.17
2018-11-26T06:15:16.861Z,27.53
2018-11-26T06:17:49.275Z,26.57
2018-11-26T06:20:21.854Z,27.70
2018-11-26T06:22:54.327Z,27.17
2018-11-26T06:25:26.846Z,27.27
2018-11-26T06:27:59.326Z,27.30
2018-11-26T06:30:31.868Z,27.20
2018-11-26T06:33:04.655Z,26.07
2018-11-26T06:35:37.361Z,26.77
2018-11-26T06:38:09.913Z,27.60
2018-11-26T06:40:42.379Z,26.37
2018-11-26T06:43:14.983Z,27.80
2018-11-26T06:45:47.417Z,27.33
2018-11-26T06:48:19.882Z,26.77
2018-11-26T06:50:52.310Z,27.93
2018-11-26T06:53:24.774Z,27.37
2018-11-26T06:55:57.252Z,27.83
2018-11-26T06:58:30.004Z,28.27
2018-11-26T07:01:02.469Z,27.00
2018-11-26T07:03:35.007Z,28.27
2018-11-26T07:06:07.498Z,27.83
2018-11-26T07:08:39.900Z,29.33
2018-11-26T07:11:12.400Z,26.83
2018-11-26T07:13:44.835Z,28.53
2018-11-26T07:16:18.326Z,27.73
2018-11-26T07:18:50.753Z,27.83
2018-11-26T07:21:23.271Z,29.60
2018-11-26T07:23:55.740Z,30.37
2018-11-26T07:26:28.243Z,28.53
2018-11-26T07:29:00.624Z,28.20
2018-11-26T07:31:33.195Z,27.73
2018-11-26T07:34:05.609Z,29.53
2018-11-26T07:36:38.155Z,29.13
2018-11-26T07:39:10.544Z,28.77
2018-11-26T07:41:43.021Z,28.53
2018-11-26T07:44:15.426Z,28.50
2018-11-26T07:46:47.864Z,27.23
2018-11-26T07:49:20.269Z,27.57
2018-11-26T07:51:52.665Z,29.03
2018-11-26T07:54:25.026Z,28.77
2018-11-26T07:56:57.539Z,28.17
2018-11-26T07:59:30.162Z,29.40
2018-11-26T08:02:02.639Z,27.10
2018-11-26T08:04:35.137Z,26.80
2018-11-26T08:07:07.581Z,27.50
2018-11-26T08:09:40.141Z,27.30
2018-11-26T08:12:12.675Z,26.30
2018-11-26T08:14:45.152Z,26.67
2018-11-26T08:17:17.893Z,25.43
2018-11-26T08:19:50.333Z,25.77
2018-11-26T08:22:22.809Z,26.87
2018-11-26T08:24:55.263Z,25.77
2018-11-26T08:27:27.732Z,25.97
2018-11-26T08:30:00.161Z,26.07
2018-11-26T08:33:03.505Z,25.30
2018-11-26T08:35:36.002Z,24.23
2018-11-26T08:38:13.154Z,24.70
2018-11-26T08:40:49.054Z,24.60
2018-11-26T08:43:27.204Z,24.10
2018-11-26T08:46:04.210Z,23.30
2018-11-26T08:48:43.143Z,23.40
2018-11-26T08:51:15.551Z,24.50
2018-11-26T08:53:48.039Z,23.67
2018-11-26T08:56:20.443Z,22.53
2018-11-26T08:58:52.904Z,23.63
2018-11-26T09:01:31.103Z,23.43
2018-11-26T09:04:03.987Z,20.53
2018-11-26T09:06:37.089Z,22.07
2018-11-26T09:09:10.458Z,21.60
2018-11-26T09:11:43.112Z,21.73
2018-11-26T09:14:15.608Z,21.20
2018-11-26T09:16:48.232Z,19.83
2018-11-26T09:19:20.946Z,19.53
2018-11-26T09:21:53.596Z,20.30
2018-11-26T09:24:26.134Z,18.77
2018-11-26T09:26:58.663Z,21.17
2018-11-26T09:29:31.191Z,20.33
2018-11-26T09:32:03.897Z,19.93
2018-11-26T09:34:36.377Z,21.30
2018-11-26T09:37:08.920Z,19.83
2018-11-26T09:39:41.548Z,19.90
2018-11-26T09:42:14.670Z,20.83
2018-11-26T09:44:47.172Z,20.87
2018-11-26T09:47:19.694Z,18.97
2018-11-26T09:49:52.501Z,26.47
2018-11-26T09:52:24.923Z,25.10
2018-11-26T09:54:57.563Z,26.67
2018-11-26T09:57:30.052Z,19.90
2018-11-26T10:00:08.134Z,19.90
2018-11-26T10:02:41.446Z,19.20
2018-11-26T10:05:17.097Z,20.00
2018-11-26T10:07:49.954Z,25.93
2018-11-26T10:10:22.605Z,23.80
2018-11-26T10:12:55.171Z,24.40
2018-11-26T10:15:27.861Z,21.30
2018-11-26T10:18:15.287Z,18.03
2018-11-26T10:20:48.409Z,18.23
2018-11-26T10:23:21.047Z,18.60
2018-11-26T10:25:53.862Z,19.17
2018-11-26T10:28:26.386Z,19.70
2018-11-26T10:30:58.791Z,18.27
2018-11-26T10:33:31.251Z,18.23
2018-11-26T10:36:03.768Z,17.70
2018-11-26T10:38:36.431Z,17.30
2018-11-26T10:41:09.364Z,18.00
2018-11-26T10:43:41.865Z,17.40
2018-11-26T10:46:14.495Z,18.77
2018-11-26T10:48:47.020Z,17.80
2018-11-26T10:51:19.476Z,17.33
2018-11-26T10:53:52.074Z,18.03
2018-11-26T10:56:24.549Z,17.50
2018-11-26T10:58:57.002Z,17.53
2018-11-26T11:01:35.276Z,16.70
2018-11-26T11:04:07.862Z,16.57
2018-11-26T11:06:40.365Z,18.43
2018-11-26T11:09:14.228Z,18.73
2018-11-26T11:11:46.738Z,16.70
2018-11-26T11:14:19.250Z,16.90
2018-11-26T11:16:51.768Z,16.40
2018-11-26T11:19:24.267Z,17.00
2018-11-26T11:21:56.736Z,16.43
2018-11-26T11:24:29.265Z,16.73
2018-11-26T11:27:01.710Z,16.93
2018-11-26T11:29:34.168Z,17.30
2018-11-26T11:32:06.637Z,16.47
2018-11-26T11:34:39.327Z,16.80
2018-11-26T11:37:11.939Z,28.23
2018-11-26T11:39:44.394Z,17.93
2018-11-26T11:42:17.733Z,22.63
2018-11-26T11:44:50.418Z,20.70
2018-11-26T11:47:23.008Z,16.33
2018-11-26T11:49:55.611Z,16.40
2018-11-26T11:52:28.128Z,16.13
2018-11-26T11:55:01.062Z,15.83
2018-11-26T11:57:33.725Z,16.37
2018-11-26T12:00:10.403Z,15.33
2018-11-26T12:02:43.159Z,16.67
2018-11-26T12:05:15.686Z,15.80
2018-11-26T12:07:48.323Z,14.67
2018-11-26T12:10:20.986Z,16.13
2018-11-26T12:12:53.525Z,15.47
2018-11-26T12:15:26.099Z,15.07
2018-11-26T12:17:58.630Z,15.40
2018-11-26T12:20:31.188Z,15.07
2018-11-26T12:23:03.948Z,15.17
2018-11-26T12:25:36.569Z,16.23
2018-11-26T12:28:09.108Z,15.70
2018-11-26T12:30:44.458Z,15.53
2018-11-26T12:33:17.041Z,15.33
2018-11-26T12:35:49.727Z,14.93
2018-11-26T12:38:22.254Z,15.47
2018-11-26T12:40:54.820Z,15.00
2018-11-26T12:43:27.351Z,14.67
2018-11-26T12:45:59.857Z,15.17
2018-11-26T12:48:32.662Z,16.57
2018-11-26T12:51:05.246Z,15.63
2018-11-26T12:53:37.842Z,15.30
2018-11-26T12:56:10.316Z,15.40
2018-11-26T12:58:42.871Z,13.43
2018-11-26T13:01:15.495Z,13.37
2018-11-26T13:03:48.011Z,13.10
2018-11-26T13:06:20.476Z,14.07
2018-11-26T13:08:52.993Z,14.03
2018-11-26T13:11:25.437Z,21.43
2018-11-26T13:13:57.901Z,16.67
2018-11-26T13:16:30.334Z,15.97
2018-11-26T13:19:02.908Z,16.13
2018-11-26T13:21:35.418Z,15.03
2018-11-26T13:24:08.136Z,14.53
2018-11-26T13:26:40.686Z,14.60
2018-11-26T13:29:13.300Z,15.17
2018-11-26T13:31:45.746Z,15.47
2018-11-26T13:34:18.285Z,14.67
2018-11-26T13:36:50.717Z,14.70
2018-11-26T13:39:23.755Z,16.27
2018-11-26T13:41:56.337Z,15.47
2018-11-26T13:44:28.980Z,16.37
2018-11-26T13:47:01.512Z,16.47
2018-11-26T13:49:34.057Z,15.60
2018-11-26T13:52:06.515Z,16.03
2018-11-26T13:54:38.960Z,17.07
2018-11-26T13:57:11.442Z,14.90
2018-11-26T13:59:43.890Z,14.90
2018-11-26T14:02:19.601Z,15.33
2018-11-26T14:04:51.991Z,15.43
2018-11-26T14:07:24.419Z,15.87
2018-11-26T14:09:56.979Z,15.03
2018-11-26T14:12:29.437Z,14.80
2018-11-26T14:15:02.011Z,16.37
2018-11-26T14:17:34.485Z,16.20
2018-11-26T14:20:10.558Z,16.97
2018-11-26T14:22:43.112Z,17.13
2018-11-26T14:25:17.774Z,18.27
2018-11-26T14:27:50.290Z,18.60
2018-11-26T14:30:24.536Z,17.13
2018-11-26T14:32:57.103Z,16.03
2018-11-26T14:35:29.705Z,16.47
2018-11-26T14:38:03.980Z,17.20
2018-11-26T14:40:41.490Z,15.83
2018-11-26T14:43:14.042Z,15.17
2018-11-26T14:45:46.724Z,14.37
2018-11-26T14:48:19.191Z,27.07
2018-11-26T14:50:51.980Z,24.87
2018-11-26T14:53:24.510Z,15.07
2018-11-26T14:55:57.088Z,14.73
2018-11-26T14:58:29.635Z,14.97
2018-11-26T15:01:02.185Z,15.30
2018-11-26T15:03:34.826Z,15.70
2018-11-26T15:06:07.537Z,14.53
2018-11-26T15:08:39.989Z,16.13
2018-11-26T15:11:12.445Z,15.00
2018-11-26T15:13:44.891Z,14.40
2018-11-26T15:16:17.485Z,13.93
2018-11-26T15:18:49.958Z,12.80
2018-11-26T15:21:22.442Z,14.07
2018-11-26T15:23:54.909Z,14.77
2018-11-26T15:26:27.731Z,14.93
2018-11-26T15:28:59.983Z,15.93
2018-11-26T15:31:32.534Z,15.63
2018-11-26T15:34:05.218Z,16.50
2018-11-26T15:36:37.794Z,16.40
2018-11-26T15:39:10.235Z,31.60
2018-11-26T15:41:42.693Z,19.07
2018-11-26T15:44:15.149Z,16.60
2018-11-26T15:46:47.666Z,16.87
2018-11-26T15:49:20.208Z,16.27
2018-11-26T15:51:52.613Z,15.83
2018-11-26T15:54:25.217Z,18.00
2018-11-26T15:56:57.692Z,14.83
2018-11-26T15:59:30.263Z,14.40
2018-11-26T16:02:03.363Z,13.60
2018-11-26T16:04:35.834Z,14.33
2018-11-26T16:07:09.841Z,18.60
2018-11-26T16:09:42.256Z,20.87
2018-11-26T16:12:14.754Z,20.50
2018-11-26T16:14:47.258Z,14.20
2018-11-26T16:17:19.689Z,13.97
2018-11-26T16:19:52.183Z,12.97
2018-11-26T16:22:25.912Z,14.50
2018-11-26T16:24:58.391Z,11.73
2018-11-26T16:27:32.260Z,13.57
2018-11-26T16:30:06.613Z,14.07
2018-11-26T16:32:39.318Z,14.47
2018-11-26T16:35:16.021Z,14.83
2018-11-26T16:37:48.547Z,14.03
2018-11-26T16:40:21.093Z,14.27
2018-11-26T16:42:53.539Z,15.50
2018-11-26T16:45:27.058Z,16.97
2018-11-26T16:48:00.405Z,14.67
2018-11-26T16:50:34.217Z,14.40
2018-11-26T16:53:07.099Z,14.27
2018-11-26T16:55:39.802Z,12.90
2018-11-26T16:58:12.301Z,13.80
2018-11-26T17:00:44.793Z,14.80
2018-11-26T17:03:17.278Z,14.10
2018-11-26T17:05:49.740Z,15.00
2018-11-26T17:08:23.652Z,13.87
2018-11-26T17:10:56.336Z,14.93
2018-11-26T17:13:28.988Z,12.83
2018-11-26T17:16:01.455Z,14.20
2018-11-26T17:18:33.994Z,12.80
2018-11-26T17:21:06.512Z,13.00
2018-11-26T17:23:38.985Z,13.20
2018-11-26T17:26:11.410Z,14.67
2018-11-26T17:28:44.031Z,11.77
2018-11-26T17:31:16.589Z,13.70
2018-11-26T17:33:49.155Z,10.70
2018-11-26T17:36:21.659Z,15.33
2018-11-26T17:38:54.159Z,12.00
2018-11-26T17:41:26.642Z,12.53
2018-11-26T17:43:59.036Z,13.43
2018-11-26T17:46:31.564Z,11.53
2018-11-26T17:49:04.851Z,11.93
2018-11-26T17:51:37.312Z,11.80
2018-11-26T17:54:09.853Z,10.93
2018-11-26T17:56:42.350Z,11.40
2018-11-26T17:59:14.879Z,10.60
2018-11-26T18:01:47.482Z,10.90
2018-11-26T18:04:19.897Z,11.43
2018-11-26T18:06:52.382Z,15.77
2018-11-26T18:09:24.942Z,16.57
2018-11-26T18:11:57.433Z,17.37
2018-11-26T18:14:29.822Z,13.23
2018-11-26T18:17:02.652Z,12.70
2018-11-26T18:19:35.176Z,12.00
2018-11-26T18:22:07.690Z,11.53
2018-11-26T18:24:40.149Z,11.50
2018-11-26T18:27:12.608Z,10.10
2018-11-26T18:29:45.255Z,11.63
2018-11-26T18:32:17.688Z,12.23
2018-11-26T18:34:50.162Z,11.83
2018-11-26T18:37:23.017Z,11.87
2018-11-26T18:39:55.461Z,12.40
2018-11-26T18:42:28.043Z,12.20
2018-11-26T18:45:00.485Z,12.00
2018-11-26T18:47:33.242Z,12.20
2018-11-26T18:50:10.237Z,11.80
2018-11-26T18:52:43.277Z,11.83
2018-11-26T18:55:15.764Z,11.27
2018-11-26T18:57:48.275Z,12.80
2018-11-26T19:00:26.059Z,11.50
2018-11-26T19:02:58.717Z,12.10
2018-11-26T19:05:31.121Z,12.03
2018-11-26T19:08:03.618Z,12.73
2018-11-26T19:10:36.869Z,11.87
2018-11-26T19:13:14.506Z,12.67
2018-11-26T19:15:48.273Z,11.50
2018-11-26T19:18:23.946Z,12.00
2018-11-26T19:20:56.428Z,12.90
2018-11-26T19:23:28.896Z,12.57
2018-11-26T19:26:01.290Z,13.57
2018-11-26T19:28:33.749Z,13.03
2018-11-26T19:31:06.941Z,14.47
2018-11-26T19:33:39.440Z,15.57
2018-11-26T19:36:11.880Z,14.87
2018-11-26T19:38:44.329Z,16.53
2018-11-26T19:41:16.763Z,16.57
2018-11-26T19:43:49.200Z,17.13
2018-11-26T19:46:21.682Z,17.10
2018-11-26T19:48:54.304Z,17.40
2018-11-26T19:51:26.729Z,18.63
2018-11-26T19:53:59.173Z,18.60
2018-11-26T19:56:31.622Z,19.37
2018-11-26T19:59:04.053Z,20.30
2018-11-26T20:01:36.501Z,20.43
2018-11-26T20:06:24.473Z,17.70
2018-11-26T20:08:58.776Z,18.50
2018-11-26T20:11:33.363Z,21.17
2018-11-26T20:14:04.478Z,20.80
2018-11-26T20:16:39.538Z,19.87
2018-11-26T20:19:12.011Z,20.23
2018-11-26T20:21:44.491Z,20.67
2018-11-26T20:24:17.077Z,19.57
2018-11-26T20:26:49.549Z,19.27
2018-11-26T20:29:21.961Z,19.33
2018-11-26T20:31:54.536Z,18.50
2018-11-26T20:34:27.011Z,20.40
2018-11-26T20:36:59.406Z,20.33
2018-11-26T20:39:31.908Z,21.13
2018-11-26T20:42:04.628Z,20.10
2018-11-26T20:44:37.039Z,21.50
2018-11-26T20:47:09.472Z,18.97
2018-11-26T20:49:42.094Z,19.43
2018-11-26T20:52:14.576Z,21.10
2018-11-26T20:54:47.166Z,20.80
2018-11-26T20:57:19.582Z,19.23
2018-11-26T20:59:52.199Z,21.27
2018-11-26T21:02:24.588Z,20.97
2018-11-26T21:04:57.265Z,20.63
2018-11-26T21:07:29.636Z,19.73
2018-11-26T21:10:02.261Z,21.97
2018-11-26T21:12:34.792Z,19.80
2018-11-26T21:15:10.206Z,19.53
2018-11-26T21:17:50.597Z,19.40
2018-11-26T21:20:39.547Z,20.57
2018-11-26T21:23:14.768Z,18.93
2018-11-26T21:25:47.364Z,19.77
2018-11-26T21:28:19.749Z,19.73
2018-11-26T21:30:52.522Z,18.50
2018-11-26T21:33:25.076Z,17.47
2018-11-26T21:35:57.570Z,17.83
2018-11-26T21:38:30.693Z,19.70
2018-11-26T21:41:03.498Z,17.97
2018-11-26T21:43:35.936Z,17.67
2018-11-26T21:46:08.493Z,18.07
2018-11-26T21:48:40.977Z,17.43
2018-11-26T21:51:13.542Z,17.50
2018-11-26T21:53:46.061Z,16.93
2018-11-26T21:56:18.748Z,17.87
2018-11-26T21:58:51.173Z,17.20
2018-11-26T22:01:24.014Z,17.23
2018-11-26T22:03:56.425Z,17.17
2018-11-26T22:06:28.999Z,17.23
2018-11-26T22:09:01.413Z,17.67
2018-11-26T22:11:34.004Z,17.20
2018-11-26T22:14:06.463Z,16.97
2018-11-26T22:16:38.920Z,16.10
2018-11-26T22:19:11.368Z,17.27
2018-11-26T22:21:44.080Z,17.13
2018-11-26T22:24:16.452Z,16.03
2018-11-26T22:26:49.057Z,15.93
2018-11-26T22:29:21.450Z,17.77
2018-11-26T22:31:53.976Z,17.33
2018-11-26T22:34:26.489Z,16.97
2018-11-26T22:36:58.952Z,15.77
2018-11-26T22:39:31.385Z,17.20
2018-11-26T22:42:03.876Z,17.60
2018-11-26T22:44:36.312Z,16.60
2018-11-26T22:47:08.757Z,16.53
2018-11-26T22:49:41.158Z,18.27
2018-11-26T22:52:13.612Z,17.90
2018-11-26T22:54:46.008Z,19.30
2018-11-26T22:57:18.734Z,18.70
2018-11-26T22:59:51.138Z,18.00
2018-11-26T23:02:23.607Z,18.63
2018-11-26T23:04:55.999Z,19.20
2018-11-26T23:07:28.418Z,18.50
2018-11-26T23:10:00.866Z,18.93
2018-11-26T23:12:33.320Z,18.03
2018-11-26T23:15:09.807Z,18.57
2018-11-26T23:17:42.702Z,16.87
2018-11-26T23:20:16.088Z,18.30
2018-11-26T23:22:48.644Z,17.90
2018-11-26T23:25:21.084Z,17.67
2018-11-26T23:27:53.749Z,16.93
2018-11-26T23:30:26.816Z,17.80
2018-11-26T23:33:00.432Z,17.93
2018-11-26T23:35:33.841Z,17.73
2018-11-26T23:38:06.288Z,17.90
2018-11-26T23:40:38.703Z,19.40
2018-11-26T23:43:11.138Z,17.00
2018-11-26T23:45:43.528Z,16.90
2018-11-26T23:48:16.202Z,17.23
2018-11-26T23:50:48.871Z,17.37
2018-11-26T23:53:21.248Z,17.90
2018-11-26T23:55:53.843Z,17.73
2018-11-26T23:58:26.255Z,17.00
